Time;durP1;ratioP1;P1;durP2;ratioP2;P2;SDS_P1;SDS_P2;PMS_P1;PMS_P2;Temp;Humidity;BMP_temperature;BMP_pressure;BME280_temperature;BME280_humidity;BME280_pressure;Samples;Min_cycle;Max_cycle;Signal;HPM_P1;HPM_P2
2022/02/01 00:02:10;;;;;;;;;;;;;;;1.69;100.00;97231.70;1721515;82;22139;-88
2022/02/01 00:04:58;;;;;;;;;;;;;;;1.72;100.00;97228.11;1725331;82;26876;-88
2022/02/01 00:09:51;;;;;;;;;;;;;;;1.76;100.00;97236.05;1729053;82;20205;-85
2022/02/01 00:12:18;;;;;;;;;;;;;;;1.76;100.00;97236.88;1724727;81;24646;-89
2022/02/01 00:17:48;;;;;;;;;;;;;;;1.77;100.00;97239.84;1731325;82;26041;-90
2022/02/01 00:20:17;;;;;;;;;;;;;;;1.79;100.00;97244.48;1716438;82;24430;-91
2022/02/01 00:36:41;;;;;;;;;;;;;;;1.80;100.00;97247.41;1731822;82;20560;-89
2022/02/01 00:38:53;;;;;;;;;;;;;;;1.76;100.00;97251.06;1719001;82;24531;-85
2022/02/01 00:41:11;;;;;;;;;;;;;;;1.74;100.00;97255.95;1723339;82;21975;-85
2022/02/01 00:43:36;;;;;;;;;;;;;;;1.76;100.00;97251.52;1723950;82;25946;-85
2022/02/01 00:46:05;;;;;;;;;;;;;;;1.78;100.00;97253.12;1723479;82;25072;-85
2022/02/01 00:48:32;;;;;;;;;;;;;;;1.78;100.00;97254.41;1725872;82;20609;-85
2022/02/01 00:51:02;;;;;;;;;;;;;;;1.81;100.00;97247.78;1715887;81;21706;-91
2022/02/01 00:53:31;;;;;;;;;;;;;;;1.83;100.00;97253.70;1732172;81;22000;-85
2022/02/01 00:55:57;;;;;;;;;;;;;;;1.81;100.00;97256.81;1728109;81;25993;-85
2022/02/01 00:58:24;;;;;;;;;;;;;;;1.81;100.00;97251.66;1707285;82;25036;-85
2022/02/01 01:00:50;;;;;;;;;;;;;;;1.86;100.00;97257.39;1705924;82;20236;-85
2022/02/01 01:03:16;;;;;;;;;;;;;;;1.85;100.00;97248.02;1724650;81;24581;-89
2022/02/01 01:05:43;;;;;;;;;;;;;;;1.87;100.00;97261.64;1730857;81;21940;-89
2022/02/01 01:08:09;;;;;;;;;;;;;;;1.86;100.00;97257.84;1724376;81;25965;-88
2022/02/01 01:10:35;;;;;;;;;;;;;;;1.92;100.00;97263.97;1727074;81;24431;-88
2022/02/01 01:13:16;;;;;;;;;;;;;;;1.95;100.00;97265.95;1726508;82;20316;-88
2022/02/01 01:15:32;;;;;;;;;;;;;;;1.93;100.00;97272.92;1718835;82;25418;-88
2022/02/01 01:45:09;;;;;;;;;;;;;;;1.75;100.00;97294.98;1723756;81;22048;-90
2022/02/01 01:55:38;;;;;;;;;;;;;;;1.43;100.00;97314.71;1708964;82;24629;-88
2022/02/01 01:58:05;;;;;;;;;;;;;;;1.36;100.00;97313.38;1734510;82;23473;-88
2022/02/01 02:01:11;;;;;;;;;;;;;;;1.40;100.00;97324.74;1734640;81;25995;-88
2022/02/01 02:03:06;;;;;;;;;;;;;;;1.37;100.00;97327.45;1722072;81;24101;-89
2022/02/01 02:05:32;;;;;;;;;;;;;;;1.36;100.00;97331.42;1737326;81;20181;-88
2022/02/01 02:07:58;;;;;;;;;;;;;;;1.35;100.00;97332.33;1738376;81;24508;-88
2022/02/01 02:10:31;;;;;;;;;;;;;;;1.32;100.00;97337.17;1735292;81;21995;-88
2022/02/01 02:13:04;;;;;;;;;;;;;;;1.34;100.00;97337.94;1739670;81;26215;-88
2022/02/01 02:15:30;;;;;;;;;;;;;;;1.33;100.00;97340.58;1737383;81;24324;-85
2022/02/01 02:17:56;;;;;;;;;;;;;;;1.31;100.00;97345.00;1742239;81;20296;-88
2022/02/01 02:20:22;;;;;;;;;;;;;;;1.28;100.00;97351.13;1738429;81;24632;-88
2022/02/01 02:22:49;;;;;;;;;;;;;;;1.26;100.00;97349.91;1736577;82;22050;-88
2022/02/01 02:25:15;;;;;;;;;;;;;;;1.24;100.00;97355.61;1736065;82;25958;-88
2022/02/01 02:27:42;;;;;;;;;;;;;;;1.27;100.00;97357.19;1742432;81;24489;-88
2022/02/01 02:30:09;;;;;;;;;;;;;;;1.29;100.00;97357.95;1740987;81;20462;-85
2022/02/01 02:32:37;;;;;;;;;;;;;;;1.33;100.00;97359.91;1734355;81;20179;-88
2022/02/01 02:35:03;;;;;;;;;;;;;;;1.30;100.00;97354.92;1742352;81;22037;-89
2022/02/01 02:37:31;;;;;;;;;;;;;;;1.34;100.00;97358.55;1732612;82;25968;-89
2022/02/01 02:41:19;;;;;;;;;;;;;;;;;;;;;
2022/02/01 02:45:38;;;;;;;;;;;;;;;1.33;100.00;97377.50;1742776;81;24596;-90
2022/02/01 02:48:07;;;;;;;;;;;;;;;1.26;100.00;97379.54;1741200;82;22050;-89
2022/02/01 02:50:33;;;;;;;;;;;;;;;1.17;100.00;97380.45;1736305;82;25951;-88
2022/02/01 02:52:59;;;;;;;;;;;;;;;1.14;100.00;97385.33;1737520;82;24497;-84
2022/02/01 02:55:33;;;;;;;;;;;;;;;1.11;100.00;97392.34;1732026;82;20221;-90
2022/02/01 02:57:59;;;;;;;;;;;;;;;1.08;100.00;97397.66;1736963;81;25175;-88
2022/02/01 03:00:25;;;;;;;;;;;;;;;1.09;100.00;97394.19;1736995;81;22162;-88
2022/02/01 03:02:54;;;;;;;;;;;;;;;1.10;100.00;97399.23;1734394;82;26235;-88
2022/02/01 03:05:20;;;;;;;;;;;;;;;1.07;100.00;97398.11;1734766;80;24453;-88
2022/02/01 03:07:46;;;;;;;;;;;;;;;1.06;100.00;97398.18;1733525;82;20284;-88
2022/02/01 03:10:12;;;;;;;;;;;;;;;1.10;100.00;97404.84;1733071;82;24599;-88
2022/02/01 03:20:49;;;;;;;;;;;;;;;1.06;100.00;97413.63;1737328;82;20294;-84
2022/02/01 03:23:15;;;;;;;;;;;;;;;1.04;100.00;97416.28;1733420;80;25323;-84
2022/02/01 03:25:41;;;;;;;;;;;;;;;1.03;100.00;97422.81;1732796;81;22134;-84
2022/02/01 03:28:07;;;;;;;;;;;;;;;0.98;100.00;97419.17;1732547;81;26062;-84
2022/02/01 03:30:33;;;;;;;;;;;;;;;0.95;100.00;97420.59;1730302;82;24419;-87
2022/02/01 03:32:59;;;;;;;;;;;;;;;0.97;100.00;97414.92;1732896;82;20321;-87
2022/02/01 03:35:29;;;;;;;;;;;;;;;1.00;100.00;97418.63;1717064;82;24640;-87
2022/02/01 03:37:57;;;;;;;;;;;;;;;1.02;100.00;97414.25;1736878;82;22053;-89
2022/02/01 03:40:22;;;;;;;;;;;;;;;1.07;100.00;97417.89;1733502;81;26174;-88
2022/02/01 03:42:48;;;;;;;;;;;;;;;1.10;100.00;97417.27;1733464;81;25345;-88
2022/02/01 03:45:15;;;;;;;;;;;;;;;1.17;100.00;97424.26;1736953;82;20175;-88
2022/02/01 03:47:41;;;;;;;;;;;;;;;1.15;100.00;97434.63;1730659;82;24537;-84
2022/02/01 03:50:07;;;;;;;;;;;;;;;1.14;100.00;97439.43;1730670;82;21952;-84
2022/02/01 03:52:34;;;;;;;;;;;;;;;1.10;100.00;97444.33;1714347;82;26057;-84
2022/02/01 03:55:00;;;;;;;;;;;;;;;1.07;100.00;97448.80;1732601;80;25113;-84
2022/02/01 03:57:26;;;;;;;;;;;;;;;0.97;100.00;97445.00;1737608;82;20511;-84
2022/02/01 03:59:52;;;;;;;;;;;;;;;0.95;100.00;97448.92;1740937;82;24731;-84
2022/02/01 04:02:25;;;;;;;;;;;;;;;0.90;100.00;97456.03;1737954;82;22004;-83
2022/02/01 04:04:53;;;;;;;;;;;;;;;0.87;100.00;97464.38;1746291;82;26071;-84
2022/02/01 04:07:17;;;;;;;;;;;;;;;0.77;100.00;97467.35;1737983;81;24470;-84
2022/02/01 04:09:44;;;;;;;;;;;;;;;0.68;100.00;97461.80;1733150;82;20281;-83
2022/02/01 04:12:10;;;;;;;;;;;;;;;0.63;100.00;97467.16;1735400;82;24788;-85
2022/02/01 04:14:36;;;;;;;;;;;;;;;0.60;100.00;97458.76;1734770;82;22052;-89
2022/02/01 04:17:04;;;;;;;;;;;;;;;0.57;100.00;97462.30;1748327;82;26038;-88
2022/02/01 04:19:37;;;;;;;;;;;;;;;0.55;100.00;97457.66;1741084;82;25072;-88
2022/02/01 04:22:04;;;;;;;;;;;;;;;0.53;100.00;97457.36;1741437;82;20253;-89
2022/02/01 04:24:31;;;;;;;;;;;;;;;0.56;100.00;97466.21;1741391;82;24751;-89
2022/02/01 04:26:58;;;;;;;;;;;;;;;0.58;100.00;97476.00;1737657;82;21956;-89
2022/02/01 04:29:24;;;;;;;;;;;;;;;0.60;100.00;97466.48;1742466;81;26040;-89
2022/02/01 04:31:51;;;;;;;;;;;;;;;0.64;100.00;97475.73;1746166;81;24519;-89
2022/02/01 04:34:17;;;;;;;;;;;;;;;0.68;100.00;97474.22;1733576;82;20225;-89
2022/02/01 04:36:43;;;;;;;;;;;;;;;0.63;100.00;97469.73;1734101;82;25452;-88
2022/02/01 04:39:10;;;;;;;;;;;;;;;0.66;100.00;97470.87;1742780;82;21986;-85
2022/02/01 04:41:36;;;;;;;;;;;;;;;0.70;100.00;97464.70;1738180;81;26227;-85
2022/02/01 04:44:14;;;;;;;;;;;;;;;0.80;100.00;97468.52;1741332;82;24361;-89
2022/02/01 04:46:40;;;;;;;;;;;;;;;0.82;100.00;97470.55;1715673;82;20313;-89
2022/02/01 04:49:09;;;;;;;;;;;;;;;0.87;100.00;97470.36;1737913;82;24716;-88
2022/02/01 04:51:34;;;;;;;;;;;;;;;1.04;100.00;97478.11;1742221;81;22061;-89
2022/02/01 04:54:00;;;;;;;;;;;;;;;1.10;100.00;97470.09;1739673;82;27524;-89
2022/02/01 04:56:27;;;;;;;;;;;;;;;1.09;100.00;97472.77;1740965;82;24426;-89
2022/02/01 04:58:53;;;;;;;;;;;;;;;1.12;100.00;97476.02;1736398;81;20208;-89
2022/02/01 05:01:28;;;;;;;;;;;;;;;1.20;100.00;97479.05;1735585;81;24800;-84
2022/02/01 05:03:49;;;;;;;;;;;;;;;1.27;100.00;97483.45;1736637;81;21954;-87
2022/02/01 05:06:22;;;;;;;;;;;;;;;1.33;100.00;97488.32;1741315;80;25952;-87
2022/02/01 05:08:48;;;;;;;;;;;;;;;1.41;100.00;97493.12;1741677;81;24567;-88
2022/02/01 05:11:20;;;;;;;;;;;;;;;1.47;100.00;97506.55;1735149;81;20466;-88
2022/02/01 05:14:03;;;;;;;;;;;;;;;1.49;100.00;97516.77;1732517;81;24769;-88
2022/02/01 05:16:22;;;;;;;;;;;;;;;1.48;100.00;97517.22;1736972;81;21973;-87
2022/02/01 05:18:48;;;;;;;;;;;;;;;1.46;100.00;97521.63;1736429;81;26085;-88
2022/02/01 05:21:21;;;;;;;;;;;;;;;1.49;100.00;97525.79;1736418;81;24414;-88
2022/02/01 05:23:42;;;;;;;;;;;;;;;1.49;100.00;97527.08;1731455;81;20320;-84
2022/02/01 05:26:08;;;;;;;;;;;;;;;1.45;100.00;97537.17;1726952;81;24862;-84
2022/02/01 05:28:36;;;;;;;;;;;;;;;1.40;100.00;97550.73;1732131;81;21974;-84
2022/02/01 05:31:02;;;;;;;;;;;;;;;1.37;100.00;97548.28;1730748;81;26029;-84
2022/02/01 05:33:29;;;;;;;;;;;;;;;1.35;100.00;97553.53;1730068;81;24605;-84
2022/02/01 05:35:55;;;;;;;;;;;;;;;1.31;100.00;97549.41;1731735;81;20487;-85
2022/02/01 05:38:23;;;;;;;;;;;;;;;1.29;100.00;97551.69;1725054;81;21164;-85
2022/02/01 05:40:49;;;;;;;;;;;;;;;1.22;100.00;97555.84;1737299;81;21949;-85
2022/02/01 05:43:21;;;;;;;;;;;;;;;1.12;100.00;97559.75;1735036;81;26005;-88
2022/02/01 05:45:50;;;;;;;;;;;;;;;1.05;100.00;97567.37;1738719;81;24643;-88
2022/02/01 05:48:16;;;;;;;;;;;;;;;1.02;100.00;97573.97;1734301;81;20192;-88
2022/02/01 05:50:43;;;;;;;;;;;;;;;1.00;100.00;97578.78;1735089;81;24876;-88
2022/02/01 05:53:12;;;;;;;;;;;;;;;0.98;100.00;97578.88;1735621;81;21991;-88
2022/02/01 05:55:46;;;;;;;;;;;;;;;0.95;100.00;97579.45;1738030;81;25977;-88
2022/02/01 05:58:16;;;;;;;;;;;;;;;0.91;100.00;97587.78;1739395;81;24348;-88
2022/02/01 06:00:42;;;;;;;;;;;;;;;0.87;100.00;97579.81;1740628;82;20481;-89
2022/02/01 06:03:13;;;;;;;;;;;;;;;0.84;100.00;97577.36;1737881;82;24807;-90
2022/02/01 06:05:40;;;;;;;;;;;;;;;0.83;100.00;97582.12;1727800;81;21989;-88
2022/02/01 06:08:06;;;;;;;;;;;;;;;0.83;100.00;97578.26;1738216;82;26056;-85
2022/02/01 06:10:32;;;;;;;;;;;;;;;0.80;100.00;97571.52;1742966;81;24470;-84
2022/02/01 06:13:13;;;;;;;;;;;;;;;0.81;100.00;97585.23;1734121;82;20220;-89
2022/02/01 06:15:39;;;;;;;;;;;;;;;0.82;100.00;97590.75;1736742;82;24905;-88
2022/02/01 06:18:05;;;;;;;;;;;;;;;0.82;100.00;97581.28;1742167;82;21989;-88
2022/02/01 06:20:34;;;;;;;;;;;;;;;0.84;100.00;97583.80;1740015;82;26067;-85
2022/02/01 06:23:01;;;;;;;;;;;;;;;0.86;100.00;97591.02;1744912;82;24563;-88
2022/02/01 06:25:47;;;;;;;;;;;;;;;0.88;100.00;97596.91;1738950;82;20225;-88
2022/02/01 06:28:03;;;;;;;;;;;;;;;0.89;100.00;97597.30;1735326;82;24939;-89
2022/02/01 06:30:29;;;;;;;;;;;;;;;0.90;100.00;97600.72;1737838;81;22051;-88
2022/02/01 06:32:56;;;;;;;;;;;;;;;0.88;100.00;97599.48;1734546;81;25980;-88
2022/02/01 06:35:22;;;;;;;;;;;;;;;0.84;100.00;97601.83;1744285;82;24478;-88
2022/02/01 06:37:48;;;;;;;;;;;;;;;0.81;100.00;97613.11;1742794;82;20317;-88
2022/02/01 06:40:18;;;;;;;;;;;;;;;0.80;100.00;97621.73;1742084;81;24716;-89
2022/02/01 06:42:42;;;;;;;;;;;;;;;0.78;100.00;97618.38;1741246;81;22008;-88
2022/02/01 06:45:08;;;;;;;;;;;;;;;0.78;100.00;97614.97;1713544;82;25996;-87
2022/02/01 06:47:35;;;;;;;;;;;;;;;0.75;100.00;97618.98;1733333;82;24421;-87
2022/02/01 06:50:02;;;;;;;;;;;;;;;0.78;100.00;97622.69;1732455;82;20213;-90
2022/02/01 06:52:30;;;;;;;;;;;;;;;0.77;100.00;97617.16;1739107;82;24838;-90
2022/02/01 06:55:00;;;;;;;;;;;;;;;0.78;100.00;97617.09;1740958;82;22684;-89
2022/02/01 06:57:24;;;;;;;;;;;;;;;0.80;100.00;97618.33;1737343;81;26064;-89
2022/02/01 06:59:50;;;;;;;;;;;;;;;0.79;100.00;97620.51;1736932;82;24662;-89
2022/02/01 07:02:24;;;;;;;;;;;;;;;0.79;100.00;97622.63;1731687;81;20505;-89
2022/02/01 07:04:52;;;;;;;;;;;;;;;0.79;100.00;97626.95;1705862;82;24944;-90
2022/02/01 07:07:18;;;;;;;;;;;;;;;0.74;100.00;97627.15;1731885;81;22031;-89
2022/02/01 07:09:44;;;;;;;;;;;;;;;0.77;100.00;97635.17;1733769;81;25971;-90
2022/02/01 07:12:16;;;;;;;;;;;;;;;0.79;100.00;97638.53;1739809;81;24363;-89
2022/02/01 07:14:42;;;;;;;;;;;;;;;0.78;100.00;97647.99;1740523;80;20151;-89
2022/02/01 07:17:15;;;;;;;;;;;;;;;0.83;100.00;97654.23;1711339;81;20506;-89
2022/02/01 07:19:38;;;;;;;;;;;;;;;0.86;100.00;97651.98;1728971;81;22011;-89
2022/02/01 07:22:06;;;;;;;;;;;;;;;0.88;100.00;97656.15;1738021;81;26127;-90
2022/02/01 07:24:38;;;;;;;;;;;;;;;0.91;100.00;97647.47;1716946;81;20655;-88
2022/02/01 07:27:12;;;;;;;;;;;;;;;0.82;100.00;97640.52;1730101;81;20191;-85
2022/02/01 07:29:32;;;;;;;;;;;;;;;0.94;100.00;97653.31;1742179;82;25581;-85
2022/02/01 07:31:59;;;;;;;;;;;;;;;0.92;100.00;97655.59;1732213;82;22126;-85
2022/02/01 07:34:25;;;;;;;;;;;;;;;0.90;100.00;97656.93;1723659;81;25938;-84
2022/02/01 07:36:51;;;;;;;;;;;;;;;0.90;100.00;97651.78;1731830;81;24511;-85
2022/02/01 07:39:17;;;;;;;;;;;;;;;0.90;100.00;97659.51;1733737;82;20161;-84
2022/02/01 07:41:43;;;;;;;;;;;;;;;0.92;100.00;97660.29;1733818;81;24857;-84
2022/02/01 07:44:09;;;;;;;;;;;;;;;0.98;100.00;97670.33;1737764;81;22049;-89
2022/02/01 07:46:35;;;;;;;;;;;;;;;1.03;100.00;97674.83;1738195;81;26052;-89
2022/02/01 07:49:02;;;;;;;;;;;;;;;1.10;100.00;97682.64;1736897;81;24503;-88
2022/02/01 07:51:28;;;;;;;;;;;;;;;1.16;100.00;97673.36;1733015;81;20244;-89
2022/02/01 07:53:54;;;;;;;;;;;;;;;1.17;100.00;97681.48;1734472;81;24815;-89
2022/02/01 07:56:20;;;;;;;;;;;;;;;1.20;100.00;97693.41;1734913;81;21933;-90
2022/02/01 07:58:47;;;;;;;;;;;;;;;1.23;100.00;97684.23;1734609;82;25969;-89
2022/02/01 08:01:22;;;;;;;;;;;;;;;1.24;100.00;97689.33;1731487;82;24469;-90
2022/02/01 08:03:49;;;;;;;;;;;;;;;1.22;100.00;97685.97;1736817;82;20298;-90
2022/02/01 08:06:17;;;;;;;;;;;;;;;1.21;100.00;97677.85;1741424;82;24724;-89
2022/02/01 08:08:43;;;;;;;;;;;;;;;1.20;100.00;97679.23;1743477;81;21983;-89
2022/02/01 08:11:13;;;;;;;;;;;;;;;1.18;100.00;97687.47;1734125;81;26202;-89
2022/02/01 08:14:59;;;;;;;;;;;;;;;1.14;100.00;97693.22;1715914;82;24461;-89
2022/02/01 08:17:00;;;;;;;;;;;;;;;1.02;100.00;97677.45;1708071;82;20496;-88
2022/02/01 08:20:10;;;;;;;;;;;;;;;1.07;100.00;97697.41;1713234;81;24769;-89
2022/02/01 08:21:54;;;;;;;;;;;;;;;1.01;100.00;97704.95;1707078;82;22604;-89
2022/02/01 08:24:20;;;;;;;;;;;;;;;0.98;100.00;97702.98;1729270;80;25981;-85
2022/02/01 08:26:47;;;;;;;;;;;;;;;0.93;100.00;97709.59;1721869;82;24424;-88
2022/02/01 08:29:15;;;;;;;;;;;;;;;0.89;100.00;97700.33;1730747;82;20301;-89
2022/02/01 08:31:50;;;;;;;;;;;;;;;0.97;100.00;97695.70;1745334;80;24808;-90
2022/02/01 08:34:17;;;;;;;;;;;;;;;0.95;100.00;97694.91;1742381;80;22059;-91
2022/02/01 08:36:52;;;;;;;;;;;;;;;0.96;100.00;97695.30;1740951;81;26725;-90
2022/02/01 08:39:19;;;;;;;;;;;;;;;1.01;100.00;97688.66;1740844;81;24499;-88
2022/02/01 08:41:46;;;;;;;;;;;;;;;1.06;100.00;97686.72;1734729;81;20437;-84
2022/02/01 08:44:15;;;;;;;;;;;;;;;1.14;100.00;97689.81;1734453;82;25700;-84
2022/02/01 08:46:40;;;;;;;;;;;;;;;1.18;100.00;97690.05;1733290;82;21983;-84
2022/02/01 08:49:06;;;;;;;;;;;;;;;1.19;100.00;97694.30;1710223;82;26664;-84
2022/02/01 08:51:39;;;;;;;;;;;;;;;1.26;100.00;97695.69;1738045;82;24503;-85
2022/02/01 08:54:10;;;;;;;;;;;;;;;1.34;100.00;97692.78;1737217;81;20618;-85
2022/02/01 08:59:15;;;;;;;;;;;;;;;1.49;100.00;97692.91;1729491;81;22663;-85
2022/02/01 09:01:41;;;;;;;;;;;;;;;1.56;100.00;97703.80;1728287;82;26110;-85
2022/02/01 09:04:08;;;;;;;;;;;;;;;1.54;100.00;97704.30;1724078;82;25185;-85
2022/02/01 09:06:34;;;;;;;;;;;;;;;1.56;100.00;97706.37;1725101;82;20197;-85
2022/02/01 09:09:00;;;;;;;;;;;;;;;1.54;100.00;97703.86;1721425;82;24786;-85
2022/02/01 09:11:28;;;;;;;;;;;;;;;1.47;100.00;97708.09;1721903;82;21971;-87
2022/02/01 09:13:54;;;;;;;;;;;;;;;1.43;100.00;97699.63;1726126;82;26039;-88
2022/02/01 09:16:30;;;;;;;;;;;;;;;1.43;100.00;97702.21;1730643;82;24516;-90
2022/02/01 09:18:57;;;;;;;;;;;;;;;1.45;100.00;97704.28;1721273;82;20224;-90
2022/02/01 09:21:29;;;;;;;;;;;;;;;1.46;100.00;97708.53;1727574;82;25001;-90
2022/02/01 09:23:55;;;;;;;;;;;;;;;1.46;100.00;97721.87;1725584;81;22237;-85
2022/02/01 09:26:22;;;;;;;;;;;;;;;1.50;100.00;97716.95;1729702;82;25931;-85
2022/02/01 09:28:50;;;;;;;;;;;;;;;1.52;100.00;97716.00;1721197;82;24417;-85
2022/02/01 09:31:21;;;;;;;;;;;;;;;1.54;100.00;97722.35;1725105;82;20216;-85
2022/02/01 09:33:47;;;;;;;;;;;;;;;1.53;100.00;97710.36;1724894;81;24810;-85
2022/02/01 09:36:13;;;;;;;;;;;;;;;1.54;100.00;97717.20;1729222;82;22117;-88
2022/02/01 09:38:39;;;;;;;;;;;;;;;1.52;100.00;97722.45;1722281;82;25779;-88
2022/02/01 09:41:05;;;;;;;;;;;;;;;1.52;100.00;97721.61;1719085;82;24543;-89
2022/02/01 09:43:31;;;;;;;;;;;;;;;1.51;100.00;97723.34;1717856;82;20824;-90
2022/02/01 09:45:58;;;;;;;;;;;;;;;1.45;100.00;97725.35;1729102;82;24937;-85
2022/02/01 09:48:26;;;;;;;;;;;;;;;1.40;100.00;97714.41;1721495;82;22016;-85
2022/02/01 09:50:54;;;;;;;;;;;;;;;1.49;100.00;97719.98;1725729;82;21383;-88
2022/02/01 09:53:20;;;;;;;;;;;;;;;1.54;100.00;97722.35;1728203;82;24491;-85
2022/02/01 09:55:47;;;;;;;;;;;;;;;1.56;100.00;97719.27;1726010;82;20206;-85
2022/02/01 09:58:13;;;;;;;;;;;;;;;1.55;100.00;97715.84;1725359;82;24658;-85
2022/02/01 10:00:53;;;;;;;;;;;;;;;1.56;100.00;97717.52;1702998;82;21949;-85
2022/02/01 10:03:18;;;;;;;;;;;;;;;1.59;100.00;97720.40;1705429;83;26083;-85
2022/02/01 10:05:45;;;;;;;;;;;;;;;1.58;100.00;97718.27;1714711;83;24479;-88
2022/02/01 10:08:13;;;;;;;;;;;;;;;1.58;100.00;97722.63;1713013;83;20576;-86
2022/02/01 10:10:39;;;;;;;;;;;;;;;1.54;100.00;97723.19;1709015;81;24903;-89
2022/02/01 10:13:14;;;;;;;;;;;;;;;1.53;100.00;97719.39;1707661;83;21946;-89
2022/02/01 10:15:42;;;;;;;;;;;;;;;1.57;100.00;97720.94;1706243;83;26016;-89
2022/02/01 10:18:09;;;;;;;;;;;;;;;1.58;100.00;97721.33;1701695;83;25274;-89
2022/02/01 10:20:36;;;;;;;;;;;;;;;1.53;100.00;97719.39;1705365;82;20304;-88
2022/02/01 10:23:21;;;;;;;;;;;;;;;1.51;100.00;97723.80;1707362;83;25593;-88
2022/02/01 10:25:58;;;;;;;;;;;;;;;1.45;100.00;97722.78;1707205;83;22060;-88
2022/02/01 10:28:27;;;;;;;;;;;;;;;1.37;100.00;97708.92;1707510;83;26068;-89
2022/02/01 10:30:52;;;;;;;;;;;;;;;1.29;100.00;97707.16;1704292;83;24484;-89
2022/02/01 10:33:53;;;;;;;;;;;;;;;1.25;100.00;97696.13;1707403;83;20170;-89
2022/02/01 10:35:56;;;;;;;;;;;;;;;1.28;100.00;97682.28;1707467;83;25467;-88
2022/02/01 10:38:22;;;;;;;;;;;;;;;1.34;100.00;97682.47;1708668;83;22003;-89
2022/02/01 10:40:50;;;;;;;;;;;;;;;1.37;100.00;97682.31;1706132;83;26043;-88
2022/02/01 10:43:18;;;;;;;;;;;;;;;1.40;100.00;97681.74;1711177;83;25090;-89
2022/02/01 10:45:45;;;;;;;;;;;;;;;1.41;100.00;97679.55;1706199;83;20266;-88
2022/02/01 10:48:15;;;;;;;;;;;;;;;1.44;100.00;97673.41;1677628;83;40210;-88
2022/02/01 10:50:41;;;;;;;;;;;;;;;1.48;100.00;97669.33;1679578;83;22094;-85
2022/02/01 10:53:20;;;;;;;;;;;;;;;1.52;100.00;97663.14;1692843;83;25958;-85
2022/02/01 10:55:48;;;;;;;;;;;;;;;1.61;100.00;97656.27;1660462;85;24454;-88
2022/02/01 10:58:15;;;;;;;;;;;;;;;1.74;100.00;97655.25;1636294;85;20297;-85
2022/02/01 11:00:45;;;;;;;;;;;;;;;1.80;100.00;97644.61;1672689;84;25386;-85
2022/02/01 11:03:13;;;;;;;;;;;;;;;1.85;100.00;97645.26;1689793;83;22017;-85
2022/02/01 11:05:40;;;;;;;;;;;;;;;1.93;100.00;97645.71;1675747;84;26640;-88
2022/02/01 11:08:07;;;;;;;;;;;;;;;1.92;100.00;97642.75;1672270;84;24652;-88
2022/02/01 11:10:33;;;;;;;;;;;;;;;2.03;100.00;97641.77;1672866;84;20581;-88
2022/02/01 11:13:07;;;;;;;;;;;;;;;2.13;100.00;97642.16;1673472;84;24811;-88
2022/02/01 11:15:33;;;;;;;;;;;;;;;2.19;100.00;97639.73;1673090;85;21907;-89
2022/02/01 11:18:01;;;;;;;;;;;;;;;2.30;100.00;97643.45;1677857;85;26974;-89
2022/02/01 11:20:31;;;;;;;;;;;;;;;2.38;100.00;97639.22;1669708;84;24363;-89
2022/02/01 11:23:04;;;;;;;;;;;;;;;2.35;100.00;97643.22;1671986;85;20243;-89
2022/02/01 11:25:42;;;;;;;;;;;;;;;2.35;100.00;97636.77;1673470;84;24770;-89
2022/02/01 11:30:38;;;;;;;;;;;;;;;2.33;100.00;97631.70;1670064;85;26949;-88
2022/02/01 11:33:05;;;;;;;;;;;;;;;2.35;100.00;97632.90;1672185;85;24657;-85
2022/02/01 11:35:32;;;;;;;;;;;;;;;2.37;100.00;97628.50;1672195;85;20553;-85
2022/02/01 11:38:03;;;;;;;;;;;;;;;2.34;100.00;97624.80;1674147;84;24664;-85
2022/02/01 11:40:30;;;;;;;;;;;;;;;2.33;100.00;97623.13;1672349;85;22857;-85
2022/02/01 11:42:59;;;;;;;;;;;;;;;2.35;100.00;97614.38;1668447;85;26949;-89
2022/02/01 11:45:26;;;;;;;;;;;;;;;2.35;100.00;97612.25;1653117;85;24116;-88
2022/02/01 11:47:53;;;;;;;;;;;;;;;2.38;100.00;97609.53;1678892;85;20411;-85
2022/02/01 11:50:20;;;;;;;;;;;;;;;2.35;100.00;97608.37;1672228;84;25523;-85
2022/02/01 11:52:51;;;;;;;;;;;;;;;2.30;100.00;97602.16;1677357;85;22704;-86
2022/02/01 11:55:19;;;;;;;;;;;;;;;2.24;100.00;97593.42;1671827;85;28022;-88
2022/02/01 11:57:47;;;;;;;;;;;;;;;2.16;100.00;97585.70;1673931;85;25225;-86
2022/02/01 12:00:15;;;;;;;;;;;;;;;2.14;100.00;97588.34;1725924;82;20571;-87
2022/02/01 12:02:52;;;;;;;;;;;;;;;2.15;100.00;97587.44;1686625;83;24948;-88
2022/02/01 12:05:26;;;;;;;;;;;;;;;2.19;100.00;97586.81;1674080;84;22001;-88
2022/02/01 12:08:07;;;;;;;;;;;;;;;2.21;100.00;97585.01;1694909;83;26025;-87
2022/02/01 12:10:34;;;;;;;;;;;;;;;2.20;100.00;97566.55;1710828;83;24455;-89
2022/02/01 12:13:01;;;;;;;;;;;;;;;2.18;100.00;97567.11;1708389;83;20270;-90
2022/02/01 12:15:39;;;;;;;;;;;;;;;2.17;100.00;97561.11;1697011;83;24725;-88
2022/02/01 12:18:07;;;;;;;;;;;;;;;2.21;100.00;97557.91;1697702;83;21985;-89
2022/02/01 12:20:34;;;;;;;;;;;;;;;2.22;100.00;97564.75;1687968;83;25784;-89
2022/02/01 12:23:09;;;;;;;;;;;;;;;2.26;100.00;97554.18;1684167;83;24596;-87
2022/02/01 12:25:44;;;;;;;;;;;;;;;2.28;100.00;97551.08;1703323;82;20256;-90
2022/02/01 12:28:16;;;;;;;;;;;;;;;2.32;100.00;97546.13;1709109;81;24832;-89
2022/02/01 12:30:42;;;;;;;;;;;;;;;2.39;100.00;97544.91;1705157;81;22052;-89
2022/02/01 12:33:10;;;;;;;;;;;;;;;2.44;100.00;97545.96;1737502;82;25974;-88
2022/02/01 12:35:37;;;;;;;;;;;;;;;2.47;100.00;97545.34;1731983;82;23944;-88
2022/02/01 12:38:05;;;;;;;;;;;;;;;2.43;100.00;97523.18;1734068;82;20487;-88
2022/02/01 12:40:36;;;;;;;;;;;;;;;2.55;100.00;97541.08;1737353;81;24888;-88
2022/02/01 12:43:08;;;;;;;;;;;;;;;2.59;100.00;97533.54;1737077;82;22926;-85
2022/02/01 12:48:10;;;;;;;;;;;;;;;2.61;100.00;97542.50;1686447;81;24383;-84
2022/02/01 12:50:37;;;;;;;;;;;;;;;2.62;100.00;97540.31;1737279;81;20280;-88
2022/02/01 12:53:04;;;;;;;;;;;;;;;2.64;100.00;97535.42;1739626;81;24801;-88
2022/02/01 12:55:30;;;;;;;;;;;;;;;2.65;100.00;97526.77;1741394;82;22052;-89
2022/02/01 12:58:03;;;;;;;;;;;;;;;2.69;100.00;97526.13;1737139;82;26001;-90
2022/02/01 13:00:25;;;;;;;;;;;;;;;2.72;100.00;97515.66;1734319;81;24447;-89
2022/02/01 13:02:55;;;;;;;;;;;;;;;2.70;100.00;97518.31;1708184;83;20328;-90
2022/02/01 13:05:30;;;;;;;;;;;;;;;2.70;100.00;97509.27;1714555;82;24855;-90
2022/02/01 13:13:51;;;;;;;;;;;;;;;2.57;100.00;97507.41;1677726;85;24471;-88
2022/02/01 13:15:46;;;;;;;;;;;;;;;2.55;100.00;97506.22;1704414;82;20245;-87
2022/02/01 13:18:17;;;;;;;;;;;;;;;2.53;100.00;97499.83;1711323;82;24694;-88
2022/02/01 13:20:41;;;;;;;;;;;;;;;2.56;100.00;97498.02;1718025;82;22245;-88
2022/02/01 13:23:08;;;;;;;;;;;;;;;2.59;100.00;97484.92;1693807;82;26210;-88
2022/02/01 13:25:35;;;;;;;;;;;;;;;2.63;100.00;97485.13;1714428;82;24483;-87
2022/02/01 13:28:03;;;;;;;;;;;;;;;2.64;100.00;97485.52;1710433;82;20162;-88
2022/02/01 13:30:36;;;;;;;;;;;;;;;2.64;100.00;97484.22;1712422;82;24820;-87
2022/02/01 13:33:11;;;;;;;;;;;;;;;2.68;100.00;97484.42;1718862;83;22808;-87
2022/02/01 13:35:51;;;;;;;;;;;;;;;2.68;100.00;97477.97;1708583;83;25980;-88
2022/02/01 13:38:18;;;;;;;;;;;;;;;2.64;100.00;97479.89;1702118;82;24458;-88
2022/02/01 13:40:47;;;;;;;;;;;;;;;2.58;100.00;97473.75;1697276;83;20245;-91
2022/02/01 13:43:28;;;;;;;;;;;;;;;2.51;100.00;97471.11;1708428;83;24231;-91
2022/02/01 13:45:55;;;;;;;;;;;;;;;2.51;100.00;97467.23;1709188;82;22014;-89
2022/02/01 13:48:23;;;;;;;;;;;;;;;2.45;100.00;97467.14;1709300;82;26021;-90
2022/02/01 13:50:49;;;;;;;;;;;;;;;2.45;100.00;97465.02;1708386;83;24466;-90
2022/02/01 13:53:27;;;;;;;;;;;;;;;2.40;100.00;97465.72;1712558;82;20313;-90
2022/02/01 13:55:57;;;;;;;;;;;;;;;2.33;100.00;97448.41;1667909;85;24737;-85
2022/02/01 13:58:23;;;;;;;;;;;;;;;2.27;100.00;97451.77;1679840;84;22086;-85
2022/02/01 14:00:54;;;;;;;;;;;;;;;2.24;100.00;97436.42;1681874;83;26044;-85
2022/02/01 14:08:54;;;;;;;;;;;;;;;2.05;100.00;97439.98;1680018;83;24922;-84
2022/02/01 14:11:42;;;;;;;;;;;;;;;2.02;100.00;97440.58;1670562;83;21972;-85
2022/02/01 14:22:28;;;;;;;;;;;;;;;2.02;100.00;97438.84;1678405;83;24488;-85
2022/02/01 14:25:26;;;;;;;;;;;;;;;1.94;100.00;97430.67;1665279;83;22052;-84
2022/02/01 14:26:58;;;;;;;;;;;;;;;1.90;100.00;97429.17;1662651;83;26031;-84